Starcross, United Kingdom
Current Conditions -  °F | °C
As of 2:20 PM on Saturday 22 Nov 2014 (Local Time) from EGTE Reporting Station
Few Clouds Few Clouds  
Wind Chill: 57°   Ceiling: Unl
Heat Index: 57°   Visibility: 6mi
Dew Point: 50°   Wind: 5mph
Humidity: 77%   Direction: 340°NNW
Pressure: 29.88"   Gusts: NA
Location:  50.63°N, 3.45°W
Report Text: EGTE 221420Z 34004KT 9999 FEW025 14/10 Q1012
Loading
Personal Weather Stations






























Interactive Weather Map New forecast layout! Learn more

10-Day Weather Forecast

Advertisements
Track Severe Weather on mobile